Time;durP1;ratioP1;P1;durP2;ratioP2;P2;SDS_P1;SDS_P2;PMS_P1;PMS_P2;Temp;Humidity;BMP_temperature;BMP_pressure;BME280_temperature;BME280_humidity;BME280_pressure;Samples;Min_cycle;Max_cycle;Signal;HPM_P1;HPM_P2
2021/12/31 00:01:25;;;;;;;13.05;1.92;;;12.30;99.90;;;;;;5032805;28;20148;-87
2021/12/31 00:03:52;;;;;;;11.52;2.50;;;12.30;99.90;;;;;;5067024;28;20499;-87
2021/12/31 00:06:17;;;;;;;10.40;1.95;;;12.30;99.90;;;;;;5047813;28;20052;-88
2021/12/31 00:08:43;;;;;;;8.40;1.52;;;12.40;99.90;;;;;;5084436;28;20047;-86
2021/12/31 00:11:09;;;;;;;12.80;1.58;;;12.30;99.90;;;;;;5081562;28;20609;-87
2021/12/31 00:13:34;;;;;;;7.65;1.83;;;13.30;99.90;;;;;;5066229;28;20161;-87
2021/12/31 00:16:00;;;;;;;11.25;2.17;;;12.30;99.90;;;;;;5065553;28;20047;-87
2021/12/31 00:18:26;;;;;;;9.60;1.92;;;12.30;99.90;;;;;;5049313;28;20543;-87
2021/12/31 00:20:51;;;;;;;11.48;2.00;;;13.20;99.90;;;;;;5066432;28;20036;-87
2021/12/31 00:23:23;;;;;;;15.60;2.05;;;12.20;99.90;;;;;;5083156;28;20042;-87
2021/12/31 00:25:48;;;;;;;10.30;2.30;;;12.20;99.90;;;;;;5067129;28;20483;-86
2021/12/31 00:28:14;;;;;;;20.17;2.10;;;12.20;99.90;;;;;;5082945;28;20062;-85
2021/12/31 00:30:40;;;;;;;12.85;1.90;;;12.20;99.90;;;;;;5066302;28;20458;-85
2021/12/31 00:33:08;;;;;;;15.18;2.13;;;12.10;99.90;;;;;;5065312;28;20052;-86
2021/12/31 00:35:35;;;;;;;15.05;2.05;;;12.10;99.90;;;;;;5081881;28;20517;-84
2021/12/31 00:38:01;;;;;;;14.13;1.98;;;12.10;99.90;;;;;;5084087;28;20051;-84
2021/12/31 00:40:27;;;;;;;13.77;1.63;;;12.10;99.90;;;;;;5081804;28;20051;-84
2021/12/31 00:42:53;;;;;;;9.98;1.83;;;12.40;99.90;;;;;;5066846;28;20044;-84
2021/12/31 00:45:21;;;;;;;10.98;1.83;;;12.00;99.90;;;;;;5081820;28;20093;-84
2021/12/31 00:47:47;;;;;;;16.65;2.35;;;12.00;99.90;;;;;;5083685;28;20044;-83
2021/12/31 00:50:14;;;;;;;16.55;2.38;;;12.10;99.90;;;;;;5083326;28;20056;-83
2021/12/31 00:52:41;;;;;;;11.18;2.10;;;12.00;99.90;;;;;;5082556;28;20059;-83
2021/12/31 00:55:07;;;;;;;10.90;1.77;;;12.00;99.90;;;;;;5085146;28;20077;-83
2021/12/31 00:57:34;;;;;;;19.55;3.00;;;12.00;99.90;;;;;;5082241;28;20052;-83
2021/12/31 00:59:59;;;;;;;16.50;2.38;;;11.90;99.90;;;;;;5083089;28;20146;-85
2021/12/31 01:02:28;;;;;;;13.65;2.25;;;12.40;99.90;;;;;;5081278;28;20070;-83
2021/12/31 01:04:54;;;;;;;11.20;2.05;;;12.00;99.90;;;;;;5066241;28;20109;-84
2021/12/31 01:07:20;;;;;;;10.50;1.95;;;11.60;99.90;;;;;;5083152;28;20044;-84
2021/12/31 01:09:46;;;;;;;9.32;2.13;;;11.90;99.90;;;;;;5081950;28;20048;-84
2021/12/31 01:12:13;;;;;;;10.75;2.22;;;11.90;99.90;;;;;;5067139;28;20093;-84
2021/12/31 01:14:51;;;;;;;10.82;1.83;;;11.90;99.90;;;;;;5081336;28;20123;-84
2021/12/31 01:17:21;;;;;;;20.20;2.67;;;11.90;99.90;;;;;;5083350;28;20499;-84
2021/12/31 01:19:48;;;;;;;10.75;1.90;;;11.90;99.90;;;;;;5082344;28;20089;-83
2021/12/31 01:22:25;;;;;;;14.60;2.25;;;11.90;99.90;;;;;;5066158;28;20384;-84
2021/12/31 01:24:51;;;;;;;15.38;2.65;;;11.90;99.90;;;;;;5083485;28;20490;-84
2021/12/31 01:27:17;;;;;;;11.82;1.67;;;12.00;99.90;;;;;;5047594;28;20123;-84
2021/12/31 01:29:43;;;;;;;14.55;1.98;;;12.00;99.90;;;;;;5084802;28;20040;-84
2021/12/31 01:32:09;;;;;;;14.48;2.20;;;12.00;99.90;;;;;;5080903;28;20052;-84
2021/12/31 01:34:36;;;;;;;18.45;2.63;;;11.90;99.90;;;;;;5084816;28;20048;-84
2021/12/31 01:37:02;;;;;;;12.50;1.77;;;12.60;99.90;;;;;;5082335;28;20375;-83
2021/12/31 01:39:28;;;;;;;11.45;2.47;;;12.00;99.90;;;;;;5065327;28;20475;-84
2021/12/31 01:41:57;;;;;;;12.55;1.98;;;12.50;99.90;;;;;;5087099;28;20048;-84
2021/12/31 01:44:26;;;;;;;13.27;1.80;;;12.00;99.90;;;;;;5085393;28;20044;-83
2021/12/31 01:46:54;;;;;;;8.23;2.00;;;12.00;99.90;;;;;;5086878;28;20052;-84
2021/12/31 01:49:22;;;;;;;10.77;2.60;;;12.00;99.90;;;;;;5085004;28;20047;-83
2021/12/31 01:51:48;;;;;;;17.38;1.75;;;12.10;99.90;;;;;;5088973;28;20036;-83
2021/12/31 01:54:13;;;;;;;19.10;2.08;;;12.10;99.90;;;;;;5087332;28;20124;-83
2021/12/31 01:56:39;;;;;;;12.65;1.83;;;12.20;99.90;;;;;;5085603;28;20100;-84
2021/12/31 01:59:07;;;;;;;14.38;1.90;;;12.20;99.90;;;;;;5087066;28;20052;-83
2021/12/31 02:01:35;;;;;;;12.98;1.90;;;13.40;99.90;;;;;;5084716;28;20036;-83
2021/12/31 02:04:01;;;;;;;16.13;1.98;;;12.20;99.90;;;;;;5086795;28;20048;-84
2021/12/31 02:06:27;;;;;;;22.58;2.28;;;12.20;99.90;;;;;;5084427;28;20060;-83
2021/12/31 02:08:53;;;;;;;18.42;2.05;;;12.30;99.90;;;;;;5086899;28;20055;-83
2021/12/31 02:11:20;;;;;;;17.05;2.05;;;12.40;99.90;;;;;;5085515;28;20040;-84
2021/12/31 02:13:47;;;;;;;13.50;1.75;;;12.30;99.90;;;;;;5068352;28;20048;-84
2021/12/31 02:16:13;;;;;;;10.85;1.98;;;12.30;99.90;;;;;;5087940;28;20123;-83
2021/12/31 02:18:42;;;;;;;9.68;1.58;;;12.30;99.90;;;;;;5086244;28;20119;-83
2021/12/31 02:21:12;;;;;;;9.38;1.98;;;13.30;99.90;;;;;;5086893;28;20406;-85
2021/12/31 02:23:48;;;;;;;10.30;1.70;;;12.30;99.90;;;;;;5086113;28;20089;-85
2021/12/31 02:26:14;;;;;;;8.63;1.65;;;11.30;99.90;;;;;;5086048;28;20123;-85
2021/12/31 02:28:40;;;;;;;14.10;2.38;;;12.40;99.90;;;;;;5068670;28;20451;-84
2021/12/31 02:31:07;;;;;;;11.63;1.75;;;12.30;99.90;;;;;;5084695;28;20048;-85
2021/12/31 02:33:33;;;;;;;13.85;2.03;;;12.30;99.90;;;;;;5086064;28;20047;-85
2021/12/31 02:36:02;;;;;;;10.77;1.75;;;12.30;99.90;;;;;;5084459;28;20456;-85
2021/12/31 02:38:28;;;;;;;14.60;2.15;;;12.20;99.90;;;;;;5085942;28;20051;-85
2021/12/31 02:40:54;;;;;;;7.65;1.38;;;12.30;99.90;;;;;;5083952;28;20044;-84
2021/12/31 02:43:20;;;;;;;11.63;2.15;;;12.20;99.90;;;;;;5086752;28;20055;-84
2021/12/31 02:45:45;;;;;;;12.27;1.80;;;12.30;99.90;;;;;;5086814;28;20036;-84
2021/12/31 02:48:11;;;;;;;10.18;2.17;;;12.30;99.90;;;;;;5085687;28;20047;-85
2021/12/31 02:50:40;;;;;;;11.43;2.45;;;12.30;99.90;;;;;;5085562;28;20051;-85
2021/12/31 02:53:13;;;;;;;11.88;1.58;;;12.30;99.90;;;;;;5083899;28;20047;-84
2021/12/31 02:55:41;;;;;;;11.47;1.90;;;12.40;99.90;;;;;;5085758;28;20048;-84
2021/12/31 02:58:08;;;;;;;8.80;1.67;;;12.30;99.90;;;;;;5085549;28;20302;-85
2021/12/31 03:00:36;;;;;;;14.75;2.88;;;12.30;99.90;;;;;;5068283;28;20048;-84
2021/12/31 03:03:06;;;;;;;17.23;1.98;;;13.30;99.90;;;;;;5085225;28;20044;-84
2021/12/31 03:05:34;;;;;;;9.95;1.92;;;12.90;99.90;;;;;;5085010;28;20113;-84
2021/12/31 03:08:05;;;;;;;11.45;1.85;;;12.60;99.90;;;;;;5068718;28;20105;-84
2021/12/31 03:10:33;;;;;;;7.60;1.20;;;12.40;99.90;;;;;;5083180;28;20135;-85
2021/12/31 03:12:59;;;;;;;9.65;1.20;;;12.40;99.90;;;;;;5085376;28;20049;-83
2021/12/31 03:15:25;;;;;;;7.70;1.30;;;12.40;99.90;;;;;;5084571;28;20079;-84
2021/12/31 03:17:53;;;;;;;13.10;1.73;;;12.40;99.90;;;;;;5067342;28;20116;-84
2021/12/31 03:20:35;;;;;;;11.13;1.27;;;12.40;99.90;;;;;;5085128;28;20044;-83
2021/12/31 03:23:02;;;;;;;7.95;1.45;;;12.40;99.90;;;;;;5083015;28;20491;-84
2021/12/31 03:25:28;;;;;;;12.93;2.20;;;12.40;99.90;;;;;;5085080;28;20079;-84
2021/12/31 03:27:54;;;;;;;12.18;1.70;;;12.70;99.90;;;;;;5066254;28;20416;-83
2021/12/31 03:30:19;;;;;;;13.93;1.73;;;12.40;99.90;;;;;;5051568;28;20036;-85
2021/12/31 03:32:45;;;;;;;9.77;1.45;;;12.50;99.90;;;;;;5084415;28;20142;-84
2021/12/31 03:35:11;;;;;;;13.60;1.67;;;12.50;99.90;;;;;;5083638;28;20055;-84
2021/12/31 03:37:37;;;;;;;7.55;1.73;;;13.10;99.90;;;;;;5068126;28;20540;-84
2021/12/31 03:40:04;;;;;;;8.98;1.77;;;12.60;99.90;;;;;;5082739;28;20574;-84
2021/12/31 03:42:30;;;;;;;9.18;1.42;;;12.50;99.90;;;;;;5067551;28;20051;-84
2021/12/31 03:44:56;;;;;;;9.50;1.60;;;12.50;99.90;;;;;;5065735;28;20051;-83
2021/12/31 03:47:22;;;;;;;13.48;1.48;;;12.50;99.90;;;;;;5068314;28;20052;-84
2021/12/31 03:49:47;;;;;;;7.28;1.70;;;12.50;99.90;;;;;;5066684;28;20051;-84
2021/12/31 03:52:13;;;;;;;8.57;1.55;;;12.70;99.90;;;;;;5049749;28;20040;-84
2021/12/31 03:54:39;;;;;;;12.32;1.30;;;12.50;99.90;;;;;;5068038;28;20113;-84
2021/12/31 03:57:05;;;;;;;13.07;2.08;;;12.20;99.90;;;;;;5082414;28;20685;-84
2021/12/31 03:59:30;;;;;;;8.63;1.50;;;12.50;99.90;;;;;;5050994;28;20040;-83
2021/12/31 04:01:56;;;;;;;8.27;1.63;;;12.50;99.90;;;;;;5082567;28;20182;-84
2021/12/31 04:04:22;;;;;;;8.85;1.33;;;12.40;99.90;;;;;;5084128;28;20051;-84
2021/12/31 04:06:47;;;;;;;11.20;1.77;;;12.50;99.90;;;;;;5083336;28;20439;-84
2021/12/31 04:09:13;;;;;;;9.77;1.45;;;12.40;99.90;;;;;;5082109;28;20040;-84
2021/12/31 04:11:39;;;;;;;10.23;1.67;;;12.50;99.90;;;;;;5066340;28;20036;-85
2021/12/31 04:14:04;;;;;;;8.73;2.30;;;12.50;99.90;;;;;;5081058;28;20047;-84
2021/12/31 04:16:30;;;;;;;6.32;2.03;;;12.50;99.90;;;;;;5082954;28;20046;-85
2021/12/31 04:18:57;;;;;;;6.82;1.20;;;12.50;99.90;;;;;;5081288;28;20048;-84
2021/12/31 04:21:23;;;;;;;5.28;1.00;;;12.50;99.90;;;;;;5083077;28;20069;-85
2021/12/31 04:23:53;;;;;;;12.85;1.30;;;12.50;99.90;;;;;;5065499;28;20880;-84
2021/12/31 04:26:19;;;;;;;9.13;1.17;;;12.50;99.90;;;;;;5081556;28;20051;-84
2021/12/31 04:28:45;;;;;;;4.40;1.17;;;12.60;99.90;;;;;;5065903;28;20089;-84
2021/12/31 04:31:11;;;;;;;8.73;0.90;;;12.60;99.90;;;;;;5047376;28;20066;-84
2021/12/31 04:33:37;;;;;;;9.85;1.38;;;12.80;99.90;;;;;;5065930;28;20048;-84
2021/12/31 04:36:03;;;;;;;9.10;1.38;;;12.70;99.90;;;;;;5063894;28;20047;-84
2021/12/31 04:38:29;;;;;;;6.40;1.25;;;12.60;99.90;;;;;;5082764;28;20127;-84
2021/12/31 04:40:55;;;;;;;9.95;1.33;;;12.60;99.90;;;;;;5064741;28;20211;-84
2021/12/31 04:43:20;;;;;;;7.68;1.60;;;12.60;99.90;;;;;;5048582;28;20044;-84
2021/12/31 04:45:46;;;;;;;11.63;1.60;;;12.60;99.90;;;;;;5066181;28;20480;-84
2021/12/31 04:48:12;;;;;;;6.65;1.20;;;12.70;99.90;;;;;;5081107;28;20520;-84
2021/12/31 04:50:37;;;;;;;9.63;1.73;;;12.70;99.90;;;;;;5083159;28;20032;-83
2021/12/31 04:53:04;;;;;;;5.63;1.20;;;12.70;99.90;;;;;;5080726;28;20094;-84
2021/12/31 04:55:31;;;;;;;5.90;1.23;;;12.70;99.90;;;;;;5082816;28;20052;-84
2021/12/31 04:57:57;;;;;;;7.80;1.30;;;12.70;99.90;;;;;;5081797;28;20079;-84
2021/12/31 05:00:22;;;;;;;7.90;1.45;;;12.90;99.90;;;;;;5064922;28;20486;-84
2021/12/31 05:02:48;;;;;;;9.32;1.40;;;13.10;99.90;;;;;;5049181;28;20044;-84
2021/12/31 05:05:14;;;;;;;8.80;1.60;;;12.90;99.90;;;;;;5005732;28;1199700;-84
2021/12/31 05:07:40;;;;;;;8.30;1.65;;;12.80;99.90;;;;;;5066992;28;20399;-84
2021/12/31 05:10:07;;;;;;;6.35;1.52;;;12.80;99.90;;;;;;5064247;28;20143;-84
2021/12/31 05:12:35;;;;;;;6.38;1.30;;;12.80;99.90;;;;;;5083529;28;20084;-84
2021/12/31 05:15:02;;;;;;;7.00;1.30;;;12.80;99.90;;;;;;5080596;28;20056;-83
2021/12/31 05:17:28;;;;;;;5.93;1.10;;;12.80;99.90;;;;;;5065391;28;20040;-85
2021/12/31 05:19:54;;;;;;;8.05;1.20;;;13.00;99.90;;;;;;5066039;28;20051;-83
2021/12/31 05:22:20;;;;;;;9.40;1.30;;;12.80;99.90;;;;;;5082741;28;20043;-84
2021/12/31 05:24:45;;;;;;;9.60;1.05;;;12.80;99.90;;;;;;5083108;28;20131;-84
2021/12/31 05:27:11;;;;;;;8.02;1.77;;;12.80;99.90;;;;;;5080679;28;20147;-84
2021/12/31 05:29:37;;;;;;;10.45;1.52;;;12.80;99.90;;;;;;5083192;28;20040;-84
2021/12/31 05:32:03;;;;;;;4.30;1.15;;;13.10;99.90;;;;;;5081635;28;20046;-84
2021/12/31 05:34:29;;;;;;;4.60;0.90;;;12.80;99.90;;;;;;5084025;28;20477;-84
2021/12/31 05:36:55;;;;;;;7.47;1.20;;;12.80;99.90;;;;;;5082523;28;20043;-84
2021/12/31 05:39:20;;;;;;;3.53;1.00;;;12.70;99.90;;;;;;5064408;28;20105;-84
2021/12/31 05:41:46;;;;;;;6.28;1.02;;;12.70;99.90;;;;;;5082860;28;20117;-84
2021/12/31 05:44:12;;;;;;;6.13;1.15;;;12.70;99.90;;;;;;5080609;28;20040;-84
2021/12/31 05:46:39;;;;;;;4.55;1.10;;;12.70;99.90;;;;;;5066068;28;20047;-84
2021/12/31 05:49:05;;;;;;;4.07;1.33;;;12.60;99.90;;;;;;5081117;28;20169;-84
2021/12/31 05:51:31;;;;;;;5.43;0.98;;;12.60;99.90;;;;;;5082081;28;20142;-84
2021/12/31 05:53:57;;;;;;;6.45;1.00;;;12.50;99.90;;;;;;5048807;28;20044;-84
2021/12/31 05:56:23;;;;;;;5.38;1.40;;;12.50;99.90;;;;;;5064918;28;20040;-84
2021/12/31 05:58:49;;;;;;;4.22;1.35;;;12.50;99.90;;;;;;5065787;28;20403;-84
2021/12/31 06:01:15;;;;;;;2.90;1.08;;;12.60;99.90;;;;;;5063808;28;20044;-84
2021/12/31 06:03:40;;;;;;;3.50;1.00;;;12.50;99.90;;;;;;5066165;28;20109;-84
2021/12/31 06:06:06;;;;;;;4.22;1.48;;;12.60;99.90;;;;;;5063586;28;20056;-84
2021/12/31 06:08:32;;;;;;;4.10;1.05;;;12.60;99.90;;;;;;5066007;28;20465;-85
2021/12/31 06:10:57;;;;;;;4.97;1.00;;;12.60;99.90;;;;;;5082216;28;20475;-84
2021/12/31 06:13:23;;;;;;;5.97;1.40;;;12.70;99.90;;;;;;5082757;28;20101;-84
2021/12/31 06:15:55;;;;;;;5.82;1.30;;;12.70;99.90;;;;;;5084243;28;20036;-85
2021/12/31 06:18:21;;;;;;;3.97;1.27;;;12.90;99.90;;;;;;5063858;28;20055;-84
2021/12/31 06:20:47;;;;;;;4.90;1.38;;;12.70;99.90;;;;;;5066052;28;20286;-84
2021/12/31 06:23:13;;;;;;;5.07;1.00;;;12.70;99.90;;;;;;5080595;28;20044;-84
2021/12/31 06:25:39;;;;;;;6.80;0.98;;;12.70;99.90;;;;;;5082339;28;20044;-84
2021/12/31 06:28:05;;;;;;;4.45;1.50;;;12.70;99.90;;;;;;5068382;28;20120;-84
2021/12/31 06:30:31;;;;;;;4.53;1.27;;;12.80;99.90;;;;;;5084439;28;20052;-84
2021/12/31 06:32:56;;;;;;;3.97;1.27;;;12.80;99.90;;;;;;5087426;28;20070;-84
2021/12/31 06:35:22;;;;;;;6.57;1.67;;;12.80;99.90;;;;;;5085417;28;20387;-85
2021/12/31 06:37:51;;;;;;;7.43;1.40;;;12.80;99.90;;;;;;5069766;28;20055;-84
2021/12/31 06:40:16;;;;;;;3.95;1.35;;;12.70;99.90;;;;;;5084426;28;20066;-84
2021/12/31 06:42:42;;;;;;;5.10;1.33;;;12.70;99.90;;;;;;5085676;28;20475;-83
2021/12/31 06:45:08;;;;;;;4.90;1.33;;;12.70;99.90;;;;;;5086509;28;20097;-84
2021/12/31 06:47:35;;;;;;;2.83;1.00;;;12.70;99.90;;;;;;5084956;28;20047;-84
2021/12/31 06:50:01;;;;;;;6.05;1.20;;;12.70;99.90;;;;;;5068748;28;20048;-85
2021/12/31 06:52:27;;;;;;;4.88;1.27;;;12.70;99.90;;;;;;5085461;28;20047;-84
2021/12/31 06:54:52;;;;;;;5.63;1.25;;;13.80;99.90;;;;;;5086121;28;20052;-84
2021/12/31 06:57:18;;;;;;;5.75;1.00;;;12.70;99.90;;;;;;5083936;28;20380;-85
2021/12/31 06:59:44;;;;;;;7.97;1.45;;;13.10;99.90;;;;;;5069054;28;20043;-85
2021/12/31 07:02:09;;;;;;;4.05;1.45;;;12.70;99.90;;;;;;5068014;28;20522;-84
2021/12/31 07:04:35;;;;;;;3.10;1.17;;;12.90;99.90;;;;;;5084480;28;20400;-84
2021/12/31 07:07:01;;;;;;;2.28;0.93;;;12.70;99.90;;;;;;5085067;28;20094;-83
2021/12/31 07:09:26;;;;;;;5.38;1.17;;;12.70;99.90;;;;;;5083765;28;20123;-83
2021/12/31 07:11:52;;;;;;;7.38;1.27;;;12.70;99.90;;;;;;5085826;28;20099;-83
2021/12/31 07:14:18;;;;;;;4.63;1.02;;;12.60;99.90;;;;;;5083559;28;20101;-84
2021/12/31 07:16:44;;;;;;;3.65;1.33;;;12.60;99.90;;;;;;5086633;28;20052;-84
2021/12/31 07:19:09;;;;;;;4.97;0.90;;;12.70;99.90;;;;;;5083794;28;20044;-84
2021/12/31 07:21:35;;;;;;;3.85;1.17;;;12.60;99.90;;;;;;5085839;28;20090;-85
2021/12/31 07:24:01;;;;;;;4.07;1.42;;;12.70;99.90;;;;;;5085676;28;20051;-85
2021/12/31 07:26:27;;;;;;;2.63;0.93;;;12.60;99.90;;;;;;5065810;28;20044;-87
2021/12/31 07:28:52;;;;;;;4.65;1.02;;;13.50;99.90;;;;;;5086719;28;20036;-85
2021/12/31 07:31:18;;;;;;;2.88;0.70;;;12.50;99.90;;;;;;5066070;28;20467;-85
2021/12/31 07:33:44;;;;;;;3.00;1.10;;;12.50;99.90;;;;;;5086424;28;20365;-86
2021/12/31 07:36:10;;;;;;;2.22;1.00;;;12.50;99.90;;;;;;5083241;28;20044;-87
2021/12/31 07:38:39;;;;;;;3.92;0.95;;;12.50;99.90;;;;;;5066364;28;20036;-89
2021/12/31 07:41:05;;;;;;;4.38;1.02;;;12.50;99.90;;;;;;5067756;28;20056;-85
2021/12/31 07:43:31;;;;;;;6.18;1.25;;;12.50;99.90;;;;;;5082655;28;20487;-86
2021/12/31 07:45:57;;;;;;;9.30;1.13;;;12.40;99.90;;;;;;5067668;28;20048;-85
2021/12/31 07:48:23;;;;;;;4.55;0.85;;;12.40;99.90;;;;;;5083383;28;20055;-87
2021/12/31 07:50:50;;;;;;;4.45;1.00;;;12.40;99.90;;;;;;5085037;28;20391;-85
2021/12/31 07:53:16;;;;;;;2.70;0.80;;;12.30;99.90;;;;;;5082978;28;20495;-83
2021/12/31 07:55:42;;;;;;;4.35;0.82;;;12.40;99.90;;;;;;5084134;28;20057;-82
2021/12/31 07:58:08;;;;;;;5.72;1.25;;;12.40;99.90;;;;;;5067384;28;20043;-85
2021/12/31 08:00:35;;;;;;;3.00;0.77;;;12.60;99.90;;;;;;5065992;28;20056;-85
2021/12/31 08:03:03;;;;;;;1.88;0.98;;;12.40;99.90;;;;;;5084357;28;20040;-84
2021/12/31 08:05:31;;;;;;;2.05;1.08;;;12.40;99.90;;;;;;5065000;28;20577;-84
2021/12/31 08:07:59;;;;;;;4.75;1.23;;;12.40;99.90;;;;;;5067277;28;20055;-84
2021/12/31 08:10:25;;;;;;;5.88;1.27;;;12.40;99.90;;;;;;5065797;28;20113;-83
2021/12/31 08:12:50;;;;;;;3.60;1.10;;;12.40;99.90;;;;;;5083525;28;20110;-84
2021/12/31 08:15:16;;;;;;;5.85;0.90;;;12.40;99.90;;;;;;5083712;28;20052;-84
2021/12/31 08:17:42;;;;;;;5.15;1.08;;;13.00;99.90;;;;;;5048538;28;20051;-83
2021/12/31 08:20:08;;;;;;;8.48;1.40;;;12.50;99.90;;;;;;5085474;28;20040;-84
2021/12/31 08:22:34;;;;;;;2.47;0.93;;;12.50;99.90;;;;;;5082188;28;20479;-85
2021/12/31 08:24:59;;;;;;;3.10;0.90;;;12.50;99.90;;;;;;5083662;28;20044;-84
2021/12/31 08:27:25;;;;;;;3.72;1.02;;;12.50;99.90;;;;;;5082201;28;20079;-84
2021/12/31 08:29:51;;;;;;;4.97;0.98;;;12.50;99.90;;;;;;5083239;28;20047;-84
2021/12/31 08:32:17;;;;;;;6.97;1.30;;;12.50;99.90;;;;;;5083700;28;20510;-83
2021/12/31 08:34:42;;;;;;;2.78;0.70;;;12.60;99.90;;;;;;5082774;28;20502;-84
2021/12/31 08:37:08;;;;;;;1.65;0.82;;;12.60;99.90;;;;;;5084886;28;20399;-84
2021/12/31 08:39:34;;;;;;;6.82;1.73;;;12.60;99.90;;;;;;5064780;28;20036;-85
2021/12/31 08:42:01;;;;;;;5.57;1.30;;;12.60;99.90;;;;;;5083536;28;20051;-86
2021/12/31 08:44:27;;;;;;;6.25;1.40;;;12.60;99.90;;;;;;5065088;28;20560;-84
2021/12/31 08:46:53;;;;;;;6.45;1.23;;;12.60;99.90;;;;;;5082650;28;20040;-85
2021/12/31 08:49:20;;;;;;;4.22;1.02;;;12.60;99.90;;;;;;5065643;28;20039;-85
2021/12/31 08:51:46;;;;;;;2.67;0.90;;;12.80;99.90;;;;;;5081457;28;20044;-85
2021/12/31 08:54:12;;;;;;;6.63;1.40;;;12.60;99.90;;;;;;5066658;28;20076;-87
2021/12/31 08:56:38;;;;;;;2.53;1.05;;;13.50;99.90;;;;;;5081125;28;20424;-85
2021/12/31 08:59:04;;;;;;;4.03;1.27;;;12.60;99.90;;;;;;5083152;28;20135;-85
2021/12/31 09:01:30;;;;;;;3.05;0.98;;;12.60;99.90;;;;;;5081156;28;20126;-86
2021/12/31 09:03:56;;;;;;;1.95;1.00;;;12.60;99.90;;;;;;5083139;28;20051;-86
2021/12/31 09:06:22;;;;;;;4.22;1.48;;;12.60;99.90;;;;;;5084057;28;20522;-83
2021/12/31 09:08:48;;;;;;;4.38;1.05;;;12.60;99.90;;;;;;5065673;28;20089;-84
2021/12/31 09:11:15;;;;;;;3.40;1.00;;;12.60;99.90;;;;;;5084171;28;20509;-85
2021/12/31 09:13:42;;;;;;;4.47;1.23;;;12.60;99.90;;;;;;5065184;28;20063;-82
2021/12/31 09:16:11;;;;;;;2.35;1.20;;;12.60;99.90;;;;;;5083870;28;20466;-84
2021/12/31 09:18:37;;;;;;;5.38;1.65;;;12.60;99.90;;;;;;5081250;28;20546;-83
2021/12/31 09:21:03;;;;;;;5.85;1.50;;;12.60;99.90;;;;;;5066021;28;20139;-85
2021/12/31 09:23:29;;;;;;;7.22;1.40;;;13.40;99.90;;;;;;5066302;28;20415;-85
2021/12/31 09:25:56;;;;;;;5.22;1.30;;;12.60;99.90;;;;;;5065008;28;20040;-85
2021/12/31 09:28:22;;;;;;;8.20;1.33;;;12.60;99.90;;;;;;5049788;28;20048;-87
2021/12/31 09:30:48;;;;;;;6.20;1.33;;;12.60;99.90;;;;;;5080561;28;20039;-85
2021/12/31 09:33:14;;;;;;;7.28;1.33;;;13.90;99.90;;;;;;5049623;28;20048;-84
2021/12/31 09:35:42;;;;;;;3.53;1.23;;;12.60;99.90;;;;;;5064453;28;20403;-84
2021/12/31 09:38:09;;;;;;;3.90;1.25;;;12.60;99.90;;;;;;5066334;28;20385;-84
2021/12/31 09:40:39;;;;;;;4.80;1.48;;;12.60;99.90;;;;;;5082401;28;20040;-85
2021/12/31 09:43:12;;;;;;;5.53;1.40;;;12.70;99.90;;;;;;5082565;28;20052;-87
2021/12/31 09:45:39;;;;;;;;;;;12.60;99.90;;;;;;5050684;28;20079;-85
2021/12/31 09:48:13;;;;;;;5.15;1.25;;;12.60;99.90;;;;;;5080831;28;20393;-83
2021/12/31 09:50:42;;;;;;;6.03;2.03;;;12.70;99.90;;;;;;5065922;28;20039;-85
2021/12/31 09:53:10;;;;;;;2.05;0.98;;;12.60;99.90;;;;;;5081740;28;20056;-84
2021/12/31 09:55:45;;;;;;;3.97;1.20;;;12.60;99.90;;;;;;5081530;28;20083;-84
2021/12/31 09:58:12;;;;;;;2.78;1.27;;;12.60;99.90;;;;;;5083211;28;20449;-84
2021/12/31 10:00:42;;;;;;;5.13;1.33;;;12.70;99.90;;;;;;5081205;28;20351;-84
2021/12/31 10:03:16;;;;;;;4.75;1.63;;;12.60;99.90;;;;;;5054257;28;20040;-84
2021/12/31 10:05:46;;;;;;;6.65;1.52;;;12.50;99.90;;;;;;5085906;28;20127;-84
2021/12/31 10:08:24;;;;;;;8.82;2.13;;;12.50;99.90;;;;;;5087400;28;20048;-85
2021/12/31 10:11:22;;;;;;;5.30;1.67;;;12.40;99.90;;;;;;5086501;28;20052;-85
2021/12/31 10:13:56;;;;;;;8.57;1.48;;;12.30;99.90;;;;;;5085628;28;20048;-85
2021/12/31 10:16:26;;;;;;;11.85;2.00;;;12.30;99.90;;;;;;5086777;28;20457;-85
2021/12/31 10:19:18;;;;;;;7.93;2.30;;;12.30;99.90;;;;;;5084843;28;20491;-86
2021/12/31 10:21:47;;;;;;;7.85;2.20;;;12.20;99.90;;;;;;5084397;28;20050;-85
2021/12/31 10:24:34;;;;;;;4.90;2.45;;;12.20;99.90;;;;;;5087840;28;20065;-84
2021/12/31 10:27:03;;;;;;;11.55;3.08;;;13.30;99.90;;;;;;5085690;28;20056;-83
2021/12/31 10:29:29;;;;;;;6.47;3.03;;;12.10;99.90;;;;;;5087079;28;20050;-82
2021/12/31 10:31:55;;;;;;;9.07;3.10;;;12.10;99.90;;;;;;5085256;28;20156;-83
2021/12/31 10:34:32;;;;;;;9.40;2.80;;;12.10;99.90;;;;;;5081542;28;20445;-86
2021/12/31 10:37:17;;;;;;;5.93;2.78;;;12.10;99.90;;;;;;5088476;28;20050;-85
2021/12/31 10:39:44;;;;;;;4.88;2.25;;;12.10;99.90;;;;;;5081438;28;20040;-83
2021/12/31 10:42:12;;;;;;;5.95;2.42;;;12.00;99.90;;;;;;5084248;28;20051;-84
2021/12/31 10:44:53;;;;;;;4.65;2.00;;;12.60;99.90;;;;;;5084804;28;20041;-83
2021/12/31 10:47:23;;;;;;;6.47;2.20;;;12.00;99.90;;;;;;5084750;28;20083;-84
2021/12/31 10:50:04;;;;;;;7.60;2.75;;;12.00;99.90;;;;;;5086258;28;20048;-84
2021/12/31 10:52:57;;;;;;;8.35;3.75;;;12.10;99.90;;;;;;5065828;28;20052;-83
2021/12/31 10:55:31;;;;;;;3.13;1.30;;;12.00;99.90;;;;;;5067868;28;20104;-84
2021/12/31 10:58:04;;;;;;;7.55;1.88;;;12.00;99.90;;;;;;5082201;28;20384;-84
2021/12/31 11:00:42;;;;;;;7.25;1.73;;;12.10;99.90;;;;;;5064099;28;20076;-84
2021/12/31 11:03:08;;;;;;;3.92;1.50;;;12.10;99.90;;;;;;5069323;28;20437;-83
2021/12/31 11:05:35;;;;;;;6.15;1.52;;;12.10;99.90;;;;;;5049998;28;20055;-84
2021/12/31 11:08:04;;;;;;;6.60;1.98;;;12.10;99.90;;;;;;5084035;28;20325;-82
2021/12/31 11:10:37;;;;;;;7.25;1.88;;;12.00;99.90;;;;;;5064775;28;20313;-84
2021/12/31 11:13:16;;;;;;;4.28;1.33;;;12.00;99.90;;;;;;5065565;28;20044;-82
2021/12/31 11:15:44;;;;;;;5.20;2.05;;;12.50;99.90;;;;;;5065599;28;20082;-83
2021/12/31 11:18:12;;;;;;;6.22;2.05;;;12.10;99.90;;;;;;5045888;28;20044;-83
2021/12/31 11:20:39;;;;;;;6.05;1.77;;;12.50;99.90;;;;;;5064220;28;20040;-84
2021/12/31 11:23:05;;;;;;;3.38;1.50;;;12.00;99.90;;;;;;5061037;28;20123;-83
2021/12/31 11:25:35;;;;;;;6.57;1.75;;;12.00;99.90;;;;;;5066144;28;20485;-85
2021/12/31 11:28:01;;;;;;;10.98;2.10;;;11.90;99.90;;;;;;5063651;28;20048;-84
2021/12/31 11:30:37;;;;;;;7.78;2.15;;;12.10;99.90;;;;;;5051980;28;20036;-84
2021/12/31 11:33:17;;;;;;;7.55;3.05;;;11.80;99.90;;;;;;5085485;28;20044;-83
2021/12/31 11:36:01;;;;;;;5.60;2.22;;;12.00;99.90;;;;;;5079893;28;20046;-84
2021/12/31 11:38:27;;;;;;;9.10;2.35;;;11.80;99.90;;;;;;5082657;28;20044;-83
2021/12/31 11:41:08;;;;;;;8.63;3.15;;;11.80;99.90;;;;;;5079578;28;20984;-83
2021/12/31 11:43:35;;;;;;;6.75;2.90;;;11.80;99.90;;;;;;5081096;28;20125;-84
2021/12/31 11:46:15;;;;;;;4.32;2.10;;;11.80;99.90;;;;;;5050729;28;20055;-85
2021/12/31 11:48:47;;;;;;;6.10;2.30;;;11.80;99.90;;;;;;5064881;28;20051;-84
2021/12/31 11:51:28;;;;;;;3.75;2.30;;;11.80;99.90;;;;;;5066177;28;20044;-85
2021/12/31 11:54:00;;;;;;;7.88;2.40;;;11.70;99.90;;;;;;5066678;28;20126;-85
2021/12/31 11:56:45;;;;;;;5.70;2.10;;;11.70;99.90;;;;;;5064382;28;20448;-86
2021/12/31 11:59:16;;;;;;;4.95;2.42;;;11.70;99.90;;;;;;5081075;28;20052;-85
2021/12/31 12:01:51;;;;;;;5.75;2.08;;;11.70;99.90;;;;;;5080608;28;20468;-84
2021/12/31 12:04:21;;;;;;;12.05;2.90;;;11.70;99.90;;;;;;5065216;28;20044;-86
2021/12/31 12:06:58;;;;;;;7.82;2.90;;;11.70;99.90;;;;;;5063554;28;20127;-86
2021/12/31 12:09:36;;;;;;;5.80;2.65;;;11.70;99.90;;;;;;5062698;28;20048;-86
2021/12/31 12:12:07;;;;;;;5.43;1.65;;;11.80;99.90;;;;;;5084084;28;20453;-84
2021/12/31 12:14:50;;;;;;;5.60;2.08;;;13.20;99.90;;;;;;5065418;28;20098;-85
2021/12/31 12:17:28;;;;;;;6.22;1.95;;;11.70;99.90;;;;;;5067617;28;20082;-86
2021/12/31 12:19:57;;;;;;;9.52;2.22;;;11.80;99.90;;;;;;5081054;28;20052;-85
2021/12/31 12:22:32;;;;;;;2.97;2.00;;;11.70;99.90;;;;;;5067503;28;20542;-87
2021/12/31 12:25:10;;;;;;;7.93;2.08;;;11.70;99.90;;;;;;5083546;28;20144;-85
2021/12/31 12:27:37;;;;;;;3.30;2.00;;;11.70;99.90;;;;;;5080784;28;20044;-86
2021/12/31 12:30:44;;;;;;;3.15;1.85;;;11.70;99.90;;;;;;5082866;28;20047;-85
2021/12/31 12:33:18;;;;;;;3.08;1.58;;;11.70;99.90;;;;;;5056493;28;20075;-86
2021/12/31 12:36:06;;;;;;;4.00;2.05;;;11.70;99.90;;;;;;5067406;28;20044;-86
2021/12/31 12:38:34;;;;;;;4.20;1.42;;;10.70;99.90;;;;;;5083814;28;20137;-86
2021/12/31 12:41:09;;;;;;;7.88;1.88;;;11.70;99.90;;;;;;5083271;28;20102;-86
2021/12/31 12:43:57;;;;;;;5.60;2.53;;;12.20;99.90;;;;;;5083353;28;20423;-85
2021/12/31 12:46:24;;;;;;;8.10;2.60;;;12.40;99.90;;;;;;5081125;28;20048;-85
2021/12/31 12:48:51;;;;;;;2.47;2.22;;;11.60;99.90;;;;;;5084306;28;20129;-86
2021/12/31 12:51:25;;;;;;;4.72;1.83;;;11.60;99.90;;;;;;5084514;28;20187;-86